sensor_id;sensor_type;location;lat;lon;timestamp;temperature;humidity
36416;DHT22;22447;44.530;18.620;2023-04-24T00:00:55;11.40;99.90
36416;DHT22;22447;44.530;18.620;2023-04-24T00:03:26;11.40;99.90
36416;DHT22;22447;44.530;18.620;2023-04-24T00:05:53;11.40;99.90
36416;DHT22;22447;44.530;18.620;2023-04-24T00:08:19;11.40;99.90
36416;DHT22;22447;44.530;18.620;2023-04-24T00:10:45;11.40;99.90
36416;DHT22;22447;44.530;18.620;2023-04-24T00:13:11;11.50;99.90
36416;DHT22;22447;44.530;18.620;2023-04-24T00:15:37;11.50;99.90
36416;DHT22;22447;44.530;18.620;2023-04-24T00:18:02;11.40;99.90
36416;DHT22;22447;44.530;18.620;2023-04-24T00:20:28;11.30;99.90
36416;DHT22;22447;44.530;18.620;2023-04-24T00:22:55;11.30;99.90
36416;DHT22;22447;44.530;18.620;2023-04-24T00:25:21;11.30;99.90
36416;DHT22;22447;44.530;18.620;2023-04-24T00:27:46;11.20;99.90
36416;DHT22;22447;44.530;18.620;2023-04-24T00:30:12;11.20;99.90
36416;DHT22;22447;44.530;18.620;2023-04-24T00:32:38;11.20;99.90
36416;DHT22;22447;44.530;18.620;2023-04-24T00:35:04;11.10;99.90
36416;DHT22;22447;44.530;18.620;2023-04-24T00:37:31;11.20;99.90
36416;DHT22;22447;44.530;18.620;2023-04-24T00:39:57;11.20;99.90
36416;DHT22;22447;44.530;18.620;2023-04-24T00:42:23;11.20;99.90
36416;DHT22;22447;44.530;18.620;2023-04-24T00:44:49;11.20;99.90
36416;DHT22;22447;44.530;18.620;2023-04-24T00:47:15;11.20;99.90
36416;DHT22;22447;44.530;18.620;2023-04-24T00:49:41;11.20;99.90
36416;DHT22;22447;44.530;18.620;2023-04-24T00:52:07;11.20;99.90
36416;DHT22;22447;44.530;18.620;2023-04-24T00:54:34;11.10;99.90
36416;DHT22;22447;44.530;18.620;2023-04-24T00:57:01;11.10;99.90
36416;DHT22;22447;44.530;18.620;2023-04-24T00:59:27;11.10;99.90
36416;DHT22;22447;44.530;18.620;2023-04-24T01:01:53;11.10;99.90
36416;DHT22;22447;44.530;18.620;2023-04-24T01:04:19;11.10;99.90
36416;DHT22;22447;44.530;18.620;2023-04-24T01:06:47;11.10;99.90
36416;DHT22;22447;44.530;18.620;2023-04-24T01:09:14;11.10;99.90
36416;DHT22;22447;44.530;18.620;2023-04-24T01:11:40;11.10;99.90
36416;DHT22;22447;44.530;18.620;2023-04-24T01:14:07;11.10;99.90
36416;DHT22;22447;44.530;18.620;2023-04-24T01:16:32;11.00;99.90
36416;DHT22;22447;44.530;18.620;2023-04-24T01:19:00;11.10;99.90
36416;DHT22;22447;44.530;18.620;2023-04-24T01:21:26;11.10;99.90
36416;DHT22;22447;44.530;18.620;2023-04-24T01:23:53;11.10;99.90
36416;DHT22;22447;44.530;18.620;2023-04-24T01:26:19;11.10;99.90
36416;DHT22;22447;44.530;18.620;2023-04-24T01:28:45;11.10;99.90
36416;DHT22;22447;44.530;18.620;2023-04-24T01:31:11;11.10;99.90
36416;DHT22;22447;44.530;18.620;2023-04-24T01:33:37;11.10;99.90
36416;DHT22;22447;44.530;18.620;2023-04-24T01:36:03;11.10;99.90
36416;DHT22;22447;44.530;18.620;2023-04-24T01:38:29;11.00;99.90
36416;DHT22;22447;44.530;18.620;2023-04-24T01:40:55;11.00;99.90
36416;DHT22;22447;44.530;18.620;2023-04-24T01:43:20;11.00;99.90
36416;DHT22;22447;44.530;18.620;2023-04-24T01:45:47;11.00;99.90
36416;DHT22;22447;44.530;18.620;2023-04-24T01:48:12;10.90;99.90
36416;DHT22;22447;44.530;18.620;2023-04-24T01:50:38;10.90;99.90
36416;DHT22;22447;44.530;18.620;2023-04-24T01:53:04;10.90;99.90
36416;DHT22;22447;44.530;18.620;2023-04-24T01:55:30;10.80;99.90
36416;DHT22;22447;44.530;18.620;2023-04-24T01:57:56;10.80;99.90
36416;DHT22;22447;44.530;18.620;2023-04-24T02:00:23;10.70;99.90
36416;DHT22;22447;44.530;18.620;2023-04-24T02:02:51;10.70;99.90
36416;DHT22;22447;44.530;18.620;2023-04-24T02:05:17;10.60;99.90
36416;DHT22;22447;44.530;18.620;2023-04-24T02:07:43;10.70;99.90
36416;DHT22;22447;44.530;18.620;2023-04-24T02:10:09;10.60;99.90
36416;DHT22;22447;44.530;18.620;2023-04-24T02:12:35;10.60;99.90
36416;DHT22;22447;44.530;18.620;2023-04-24T02:15:01;10.60;99.90
36416;DHT22;22447;44.530;18.620;2023-04-24T02:17:27;10.50;99.90
36416;DHT22;22447;44.530;18.620;2023-04-24T02:19:53;10.50;99.90
36416;DHT22;22447;44.530;18.620;2023-04-24T02:22:19;10.50;99.90
36416;DHT22;22447;44.530;18.620;2023-04-24T02:24:45;10.50;99.90
36416;DHT22;22447;44.530;18.620;2023-04-24T02:27:13;10.50;99.90
36416;DHT22;22447;44.530;18.620;2023-04-24T02:29:39;10.40;99.90
36416;DHT22;22447;44.530;18.620;2023-04-24T02:32:05;10.40;99.90
36416;DHT22;22447;44.530;18.620;2023-04-24T02:34:31;10.30;99.90
36416;DHT22;22447;44.530;18.620;2023-04-24T02:36:58;10.30;99.90
36416;DHT22;22447;44.530;18.620;2023-04-24T02:39:24;10.30;99.90
36416;DHT22;22447;44.530;18.620;2023-04-24T02:41:51;10.30;99.90
36416;DHT22;22447;44.530;18.620;2023-04-24T02:44:17;10.20;99.90
36416;DHT22;22447;44.530;18.620;2023-04-24T02:46:43;10.10;99.90
36416;DHT22;22447;44.530;18.620;2023-04-24T02:49:09;10.00;99.90
36416;DHT22;22447;44.530;18.620;2023-04-24T02:51:35;10.00;99.90
36416;DHT22;22447;44.530;18.620;2023-04-24T02:54:03;10.00;99.90
36416;DHT22;22447;44.530;18.620;2023-04-24T02:56:29;10.00;99.90
36416;DHT22;22447;44.530;18.620;2023-04-24T02:58:57;10.20;99.90
36416;DHT22;22447;44.530;18.620;2023-04-24T03:01:23;10.10;99.90
36416;DHT22;22447;44.530;18.620;2023-04-24T03:03:48;10.30;99.90
36416;DHT22;22447;44.530;18.620;2023-04-24T03:06:14;10.20;99.90
36416;DHT22;22447;44.530;18.620;2023-04-24T03:08:41;10.20;99.90
36416;DHT22;22447;44.530;18.620;2023-04-24T03:11:06;10.20;99.90
36416;DHT22;22447;44.530;18.620;2023-04-24T03:13:32;10.20;99.90
36416;DHT22;22447;44.530;18.620;2023-04-24T03:15:58;10.20;99.90
36416;DHT22;22447;44.530;18.620;2023-04-24T03:18:24;10.30;99.90
36416;DHT22;22447;44.530;18.620;2023-04-24T03:20:51;10.30;99.90
36416;DHT22;22447;44.530;18.620;2023-04-24T03:23:17;10.30;99.90
36416;DHT22;22447;44.530;18.620;2023-04-24T03:25:44;10.50;99.90
36416;DHT22;22447;44.530;18.620;2023-04-24T03:28:11;10.60;99.90
36416;DHT22;22447;44.530;18.620;2023-04-24T03:30:41;10.50;99.90
36416;DHT22;22447;44.530;18.620;2023-04-24T03:33:08;10.60;99.90
36416;DHT22;22447;44.530;18.620;2023-04-24T03:35:38;10.60;99.90
36416;DHT22;22447;44.530;18.620;2023-04-24T03:38:08;10.70;99.90
36416;DHT22;22447;44.530;18.620;2023-04-24T03:40:53;10.60;99.90
36416;DHT22;22447;44.530;18.620;2023-04-24T03:43:42;10.60;99.90
36416;DHT22;22447;44.530;18.620;2023-04-24T03:46:09;10.60;99.90
36416;DHT22;22447;44.530;18.620;2023-04-24T03:48:39;10.60;99.90
36416;DHT22;22447;44.530;18.620;2023-04-24T03:51:07;10.50;99.90
36416;DHT22;22447;44.530;18.620;2023-04-24T03:53:35;10.50;99.90
36416;DHT22;22447;44.530;18.620;2023-04-24T03:56:01;10.60;99.90
36416;DHT22;22447;44.530;18.620;2023-04-24T03:58:29;10.70;99.90
36416;DHT22;22447;44.530;18.620;2023-04-24T04:00:55;10.80;99.90
36416;DHT22;22447;44.530;18.620;2023-04-24T04:03:44;10.80;99.90
36416;DHT22;22447;44.530;18.620;2023-04-24T04:06:10;10.80;99.90
36416;DHT22;22447;44.530;18.620;2023-04-24T04:08:37;10.90;99.90
36416;DHT22;22447;44.530;18.620;2023-04-24T04:11:03;10.80;99.90
36416;DHT22;22447;44.530;18.620;2023-04-24T04:13:29;10.80;99.90
36416;DHT22;22447;44.530;18.620;2023-04-24T04:15:55;10.80;99.90
36416;DHT22;22447;44.530;18.620;2023-04-24T04:18:21;10.90;99.90
36416;DHT22;22447;44.530;18.620;2023-04-24T04:20:47;10.90;99.90
36416;DHT22;22447;44.530;18.620;2023-04-24T04:23:14;11.00;99.90
36416;DHT22;22447;44.530;18.620;2023-04-24T04:26:00;11.00;99.90
36416;DHT22;22447;44.530;18.620;2023-04-24T04:28:37;11.10;99.90
36416;DHT22;22447;44.530;18.620;2023-04-24T04:31:05;11.20;99.90
36416;DHT22;22447;44.530;18.620;2023-04-24T04:33:30;11.20;99.90
36416;DHT22;22447;44.530;18.620;2023-04-24T04:35:57;11.30;99.90
36416;DHT22;22447;44.530;18.620;2023-04-24T04:38:25;11.40;99.90
36416;DHT22;22447;44.530;18.620;2023-04-24T04:41:06;11.30;99.90
36416;DHT22;22447;44.530;18.620;2023-04-24T04:43:33;11.50;99.90
36416;DHT22;22447;44.530;18.620;2023-04-24T04:46:00;11.60;99.90
36416;DHT22;22447;44.530;18.620;2023-04-24T04:48:28;11.60;99.90
36416;DHT22;22447;44.530;18.620;2023-04-24T04:50:59;11.60;99.90
36416;DHT22;22447;44.530;18.620;2023-04-24T04:53:25;11.70;99.90
36416;DHT22;22447;44.530;18.620;2023-04-24T04:55:51;11.70;99.90
36416;DHT22;22447;44.530;18.620;2023-04-24T04:58:19;11.80;99.90
36416;DHT22;22447;44.530;18.620;2023-04-24T05:00:47;11.90;99.90
36416;DHT22;22447;44.530;18.620;2023-04-24T05:03:20;12.00;99.90
36416;DHT22;22447;44.530;18.620;2023-04-24T05:05:47;12.20;99.90
36416;DHT22;22447;44.530;18.620;2023-04-24T05:08:15;12.30;99.90
36416;DHT22;22447;44.530;18.620;2023-04-24T05:10:41;12.30;99.90
36416;DHT22;22447;44.530;18.620;2023-04-24T05:13:07;12.30;99.90
36416;DHT22;22447;44.530;18.620;2023-04-24T05:15:33;12.40;99.90
36416;DHT22;22447;44.530;18.620;2023-04-24T05:18:00;12.50;99.90
36416;DHT22;22447;44.530;18.620;2023-04-24T05:20:27;12.50;99.90
36416;DHT22;22447;44.530;18.620;2023-04-24T05:22:54;12.60;99.90
36416;DHT22;22447;44.530;18.620;2023-04-24T05:25:21;12.60;99.90
36416;DHT22;22447;44.530;18.620;2023-04-24T05:27:57;12.60;99.90
36416;DHT22;22447;44.530;18.620;2023-04-24T05:30:22;12.70;99.90
36416;DHT22;22447;44.530;18.620;2023-04-24T05:32:49;12.80;99.90
36416;DHT22;22447;44.530;18.620;2023-04-24T05:35:15;12.80;99.90
36416;DHT22;22447;44.530;18.620;2023-04-24T05:37:41;12.90;99.90
36416;DHT22;22447;44.530;18.620;2023-04-24T05:40:08;12.90;99.90
36416;DHT22;22447;44.530;18.620;2023-04-24T05:42:34;12.80;99.90
36416;DHT22;22447;44.530;18.620;2023-04-24T05:45:00;12.90;99.90
36416;DHT22;22447;44.530;18.620;2023-04-24T05:47:26;12.90;99.90
36416;DHT22;22447;44.530;18.620;2023-04-24T05:49:52;12.90;99.90
36416;DHT22;22447;44.530;18.620;2023-04-24T05:52:19;12.80;99.90
36416;DHT22;22447;44.530;18.620;2023-04-24T05:54:46;12.90;99.90
36416;DHT22;22447;44.530;18.620;2023-04-24T05:57:18;12.90;99.90
36416;DHT22;22447;44.530;18.620;2023-04-24T05:59:57;12.90;99.90
36416;DHT22;22447;44.530;18.620;2023-04-24T06:02:24;12.90;99.90
36416;DHT22;22447;44.530;18.620;2023-04-24T06:04:51;12.90;99.90
36416;DHT22;22447;44.530;18.620;2023-04-24T06:07:17;12.90;99.90
36416;DHT22;22447;44.530;18.620;2023-04-24T06:09:45;12.90;99.90
36416;DHT22;22447;44.530;18.620;2023-04-24T06:12:11;12.90;99.90
36416;DHT22;22447;44.530;18.620;2023-04-24T06:14:49;12.80;99.90
36416;DHT22;22447;44.530;18.620;2023-04-24T06:17:23;12.90;99.90
36416;DHT22;22447;44.530;18.620;2023-04-24T06:19:49;13.00;99.90
36416;DHT22;22447;44.530;18.620;2023-04-24T06:22:15;12.90;99.90
36416;DHT22;22447;44.530;18.620;2023-04-24T06:24:41;13.00;99.90
36416;DHT22;22447;44.530;18.620;2023-04-24T06:27:07;13.00;99.90
36416;DHT22;22447;44.530;18.620;2023-04-24T06:29:33;13.00;99.90
36416;DHT22;22447;44.530;18.620;2023-04-24T06:31:59;13.10;99.90
36416;DHT22;22447;44.530;18.620;2023-04-24T06:34:25;13.20;99.90
36416;DHT22;22447;44.530;18.620;2023-04-24T06:36:51;13.20;99.90
36416;DHT22;22447;44.530;18.620;2023-04-24T06:39:17;13.20;99.90
36416;DHT22;22447;44.530;18.620;2023-04-24T06:41:42;13.10;99.90
36416;DHT22;22447;44.530;18.620;2023-04-24T06:44:17;13.00;99.90
36416;DHT22;22447;44.530;18.620;2023-04-24T06:46:43;13.10;99.90
36416;DHT22;22447;44.530;18.620;2023-04-24T06:49:09;13.10;99.90
36416;DHT22;22447;44.530;18.620;2023-04-24T06:51:35;13.20;99.90
36416;DHT22;22447;44.530;18.620;2023-04-24T06:54:01;13.20;99.90
36416;DHT22;22447;44.530;18.620;2023-04-24T06:56:27;13.30;99.90
36416;DHT22;22447;44.530;18.620;2023-04-24T06:58:54;13.40;99.90
36416;DHT22;22447;44.530;18.620;2023-04-24T07:01:20;13.50;99.90
36416;DHT22;22447;44.530;18.620;2023-04-24T07:03:46;13.40;99.90
36416;DHT22;22447;44.530;18.620;2023-04-24T07:06:12;13.40;99.90
36416;DHT22;22447;44.530;18.620;2023-04-24T07:08:38;13.60;99.90
36416;DHT22;22447;44.530;18.620;2023-04-24T07:11:04;13.60;99.90
36416;DHT22;22447;44.530;18.620;2023-04-24T07:13:30;13.70;99.90
36416;DHT22;22447;44.530;18.620;2023-04-24T07:15:56;13.80;99.90
36416;DHT22;22447;44.530;18.620;2023-04-24T07:18:21;13.80;99.90
36416;DHT22;22447;44.530;18.620;2023-04-24T07:20:47;13.70;99.90
36416;DHT22;22447;44.530;18.620;2023-04-24T07:23:15;13.70;99.90
36416;DHT22;22447;44.530;18.620;2023-04-24T07:25:41;13.70;99.90
36416;DHT22;22447;44.530;18.620;2023-04-24T07:28:07;13.80;99.90
36416;DHT22;22447;44.530;18.620;2023-04-24T07:30:33;13.80;99.90
36416;DHT22;22447;44.530;18.620;2023-04-24T07:32:59;14.00;99.90
36416;DHT22;22447;44.530;18.620;2023-04-24T07:35:26;14.10;99.90
36416;DHT22;22447;44.530;18.620;2023-04-24T07:37:54;14.20;99.90
36416;DHT22;22447;44.530;18.620;2023-04-24T07:40:21;14.30;99.90
36416;DHT22;22447;44.530;18.620;2023-04-24T07:42:46;14.40;99.90
36416;DHT22;22447;44.530;18.620;2023-04-24T07:45:14;14.40;99.90
36416;DHT22;22447;44.530;18.620;2023-04-24T07:47:43;14.50;99.90
36416;DHT22;22447;44.530;18.620;2023-04-24T07:50:11;14.60;99.90
36416;DHT22;22447;44.530;18.620;2023-04-24T07:52:37;14.70;99.90
36416;DHT22;22447;44.530;18.620;2023-04-24T07:55:03;14.90;99.90
36416;DHT22;22447;44.530;18.620;2023-04-24T07:57:29;15.00;99.90
36416;DHT22;22447;44.530;18.620;2023-04-24T08:00:12;15.20;99.90
36416;DHT22;22447;44.530;18.620;2023-04-24T08:02:38;15.30;99.90
36416;DHT22;22447;44.530;18.620;2023-04-24T08:05:05;15.50;99.90
36416;DHT22;22447;44.530;18.620;2023-04-24T08:07:31;15.70;99.90
36416;DHT22;22447;44.530;18.620;2023-04-24T08:09:57;15.80;99.90
36416;DHT22;22447;44.530;18.620;2023-04-24T08:12:22;16.00;99.90
36416;DHT22;22447;44.530;18.620;2023-04-24T08:14:48;16.20;99.90
36416;DHT22;22447;44.530;18.620;2023-04-24T08:17:14;16.30;99.90
36416;DHT22;22447;44.530;18.620;2023-04-24T08:19:40;16.40;99.90
36416;DHT22;22447;44.530;18.620;2023-04-24T08:22:09;16.50;99.90
36416;DHT22;22447;44.530;18.620;2023-04-24T08:24:35;16.70;99.90
36416;DHT22;22447;44.530;18.620;2023-04-24T08:27:09;16.80;99.90
36416;DHT22;22447;44.530;18.620;2023-04-24T08:29:38;16.90;99.90
36416;DHT22;22447;44.530;18.620;2023-04-24T08:32:03;17.10;99.90
36416;DHT22;22447;44.530;18.620;2023-04-24T08:34:30;17.20;99.90
36416;DHT22;22447;44.530;18.620;2023-04-24T08:36:55;17.30;99.90
36416;DHT22;22447;44.530;18.620;2023-04-24T08:39:21;17.40;99.90
36416;DHT22;22447;44.530;18.620;2023-04-24T08:41:47;17.50;99.90
36416;DHT22;22447;44.530;18.620;2023-04-24T08:44:13;17.60;99.90
36416;DHT22;22447;44.530;18.620;2023-04-24T08:46:44;17.70;99.90
36416;DHT22;22447;44.530;18.620;2023-04-24T08:49:14;17.80;99.90
36416;DHT22;22447;44.530;18.620;2023-04-24T08:51:41;17.90;99.90
36416;DHT22;22447;44.530;18.620;2023-04-24T08:54:07;18.00;99.90
36416;DHT22;22447;44.530;18.620;2023-04-24T08:56:34;18.10;99.90
36416;DHT22;22447;44.530;18.620;2023-04-24T08:59:00;18.20;99.90
36416;DHT22;22447;44.530;18.620;2023-04-24T09:01:26;18.30;99.90
36416;DHT22;22447;44.530;18.620;2023-04-24T09:03:52;18.50;99.90
36416;DHT22;22447;44.530;18.620;2023-04-24T09:06:18;18.60;97.20
36416;DHT22;22447;44.530;18.620;2023-04-24T09:08:45;18.70;96.20
36416;DHT22;22447;44.530;18.620;2023-04-24T09:11:10;18.80;95.60
36416;DHT22;22447;44.530;18.620;2023-04-24T09:13:37;19.00;94.60
36416;DHT22;22447;44.530;18.620;2023-04-24T09:16:03;19.10;93.20
36416;DHT22;22447;44.530;18.620;2023-04-24T09:18:29;19.10;93.40
36416;DHT22;22447;44.530;18.620;2023-04-24T09:21:01;19.20;93.10
36416;DHT22;22447;44.530;18.620;2023-04-24T09:23:28;19.20;91.90
36416;DHT22;22447;44.530;18.620;2023-04-24T09:25:54;19.30;90.60
36416;DHT22;22447;44.530;18.620;2023-04-24T09:28:24;19.40;89.10
36416;DHT22;22447;44.530;18.620;2023-04-24T09:31:01;19.40;87.20
36416;DHT22;22447;44.530;18.620;2023-04-24T09:33:27;19.50;86.40
36416;DHT22;22447;44.530;18.620;2023-04-24T09:35:53;19.60;83.40
36416;DHT22;22447;44.530;18.620;2023-04-24T09:38:19;19.70;85.50
36416;DHT22;22447;44.530;18.620;2023-04-24T09:40:56;19.80;84.30
36416;DHT22;22447;44.530;18.620;2023-04-24T09:43:25;19.60;75.80
36416;DHT22;22447;44.530;18.620;2023-04-24T09:45:52;19.70;76.50
36416;DHT22;22447;44.530;18.620;2023-04-24T09:48:29;19.80;75.80
36416;DHT22;22447;44.530;18.620;2023-04-24T09:50:55;19.80;74.10
36416;DHT22;22447;44.530;18.620;2023-04-24T09:53:24;19.80;72.10
36416;DHT22;22447;44.530;18.620;2023-04-24T09:55:50;19.80;73.50
36416;DHT22;22447;44.530;18.620;2023-04-24T09:58:16;19.70;71.90
36416;DHT22;22447;44.530;18.620;2023-04-24T10:00:41;19.70;71.50
36416;DHT22;22447;44.530;18.620;2023-04-24T10:03:07;19.70;69.00
36416;DHT22;22447;44.530;18.620;2023-04-24T10:05:35;19.90;73.20
36416;DHT22;22447;44.530;18.620;2023-04-24T10:08:05;19.70;71.30
36416;DHT22;22447;44.530;18.620;2023-04-24T10:10:31;19.80;70.70
36416;DHT22;22447;44.530;18.620;2023-04-24T10:12:57;19.90;67.00
36416;DHT22;22447;44.530;18.620;2023-04-24T10:15:24;20.00;69.00
36416;DHT22;22447;44.530;18.620;2023-04-24T10:17:51;20.30;72.60
36416;DHT22;22447;44.530;18.620;2023-04-24T10:20:23;20.40;67.80
36416;DHT22;22447;44.530;18.620;2023-04-24T10:22:51;20.50;68.90
36416;DHT22;22447;44.530;18.620;2023-04-24T10:25:20;20.80;72.50
36416;DHT22;22447;44.530;18.620;2023-04-24T10:27:47;21.00;68.50
36416;DHT22;22447;44.530;18.620;2023-04-24T10:30:13;21.20;67.00
36416;DHT22;22447;44.530;18.620;2023-04-24T10:32:39;21.10;65.30
36416;DHT22;22447;44.530;18.620;2023-04-24T10:35:08;21.10;68.00
36416;DHT22;22447;44.530;18.620;2023-04-24T10:37:39;21.40;70.70
36416;DHT22;22447;44.530;18.620;2023-04-24T10:40:06;21.30;66.00
36416;DHT22;22447;44.530;18.620;2023-04-24T10:42:33;21.40;66.30
36416;DHT22;22447;44.530;18.620;2023-04-24T10:45:04;21.70;66.80
36416;DHT22;22447;44.530;18.620;2023-04-24T10:47:30;21.70;62.60
36416;DHT22;22447;44.530;18.620;2023-04-24T10:50:07;21.70;63.40
36416;DHT22;22447;44.530;18.620;2023-04-24T10:52:49;22.20;68.30
36416;DHT22;22447;44.530;18.620;2023-04-24T10:55:16;22.40;61.90
36416;DHT22;22447;44.530;18.620;2023-04-24T10:58:02;22.70;62.30
36416;DHT22;22447;44.530;18.620;2023-04-24T11:00:29;22.60;61.20
36416;DHT22;22447;44.530;18.620;2023-04-24T11:02:55;22.60;59.80
36416;DHT22;22447;44.530;18.620;2023-04-24T11:05:21;22.50;60.20
36416;DHT22;22447;44.530;18.620;2023-04-24T11:10:31;22.20;60.60
36416;DHT22;22447;44.530;18.620;2023-04-24T11:12:57;22.40;66.50
36416;DHT22;22447;44.530;18.620;2023-04-24T11:15:23;22.60;59.90
36416;DHT22;22447;44.530;18.620;2023-04-24T11:17:49;22.60;61.30
36416;DHT22;22447;44.530;18.620;2023-04-24T11:20:16;22.20;59.70
36416;DHT22;22447;44.530;18.620;2023-04-24T11:22:42;22.00;60.10
36416;DHT22;22447;44.530;18.620;2023-04-24T11:25:08;22.20;59.00
36416;DHT22;22447;44.530;18.620;2023-04-24T11:27:43;22.00;56.80
36416;DHT22;22447;44.530;18.620;2023-04-24T11:30:10;21.80;57.60
36416;DHT22;22447;44.530;18.620;2023-04-24T11:32:40;21.80;57.50
36416;DHT22;22447;44.530;18.620;2023-04-24T11:35:16;21.80;59.30
36416;DHT22;22447;44.530;18.620;2023-04-24T11:37:46;22.00;57.00
36416;DHT22;22447;44.530;18.620;2023-04-24T11:40:13;22.10;57.00
36416;DHT22;22447;44.530;18.620;2023-04-24T11:42:52;22.10;58.20
36416;DHT22;22447;44.530;18.620;2023-04-24T11:45:18;22.20;58.70
36416;DHT22;22447;44.530;18.620;2023-04-24T11:47:45;22.20;59.20
36416;DHT22;22447;44.530;18.620;2023-04-24T11:50:11;21.90;58.80
36416;DHT22;22447;44.530;18.620;2023-04-24T11:52:38;21.70;56.70
36416;DHT22;22447;44.530;18.620;2023-04-24T11:55:12;21.60;58.00
36416;DHT22;22447;44.530;18.620;2023-04-24T11:57:52;21.60;59.80
36416;DHT22;22447;44.530;18.620;2023-04-24T12:00:20;21.60;58.70
36416;DHT22;22447;44.530;18.620;2023-04-24T12:02:46;21.60;59.70
36416;DHT22;22447;44.530;18.620;2023-04-24T12:05:31;21.60;58.80
36416;DHT22;22447;44.530;18.620;2023-04-24T12:07:57;21.70;59.40
36416;DHT22;22447;44.530;18.620;2023-04-24T12:10:24;21.60;60.40
36416;DHT22;22447;44.530;18.620;2023-04-24T12:12:50;21.50;61.70
36416;DHT22;22447;44.530;18.620;2023-04-24T12:15:17;21.50;61.00
36416;DHT22;22447;44.530;18.620;2023-04-24T12:17:43;21.40;59.70
36416;DHT22;22447;44.530;18.620;2023-04-24T12:20:09;21.40;59.00
36416;DHT22;22447;44.530;18.620;2023-04-24T12:22:51;21.50;61.50
36416;DHT22;22447;44.530;18.620;2023-04-24T12:25:20;21.50;59.90
36416;DHT22;22447;44.530;18.620;2023-04-24T12:27:50;21.60;60.30
36416;DHT22;22447;44.530;18.620;2023-04-24T12:30:17;21.60;59.00
36416;DHT22;22447;44.530;18.620;2023-04-24T12:32:44;21.70;60.50
36416;DHT22;22447;44.530;18.620;2023-04-24T12:35:10;21.90;58.90
36416;DHT22;22447;44.530;18.620;2023-04-24T12:37:36;22.20;59.40
36416;DHT22;22447;44.530;18.620;2023-04-24T12:40:06;22.40;58.70
36416;DHT22;22447;44.530;18.620;2023-04-24T12:42:32;22.60;58.60
36416;DHT22;22447;44.530;18.620;2023-04-24T12:44:59;22.70;58.00
36416;DHT22;22447;44.530;18.620;2023-04-24T12:47:26;22.60;57.10
36416;DHT22;22447;44.530;18.620;2023-04-24T12:49:52;22.70;57.60
36416;DHT22;22447;44.530;18.620;2023-04-24T12:52:18;22.70;59.70
36416;DHT22;22447;44.530;18.620;2023-04-24T12:54:47;22.80;58.60
36416;DHT22;22447;44.530;18.620;2023-04-24T12:57:13;22.60;58.70
36416;DHT22;22447;44.530;18.620;2023-04-24T12:59:43;21.90;59.70
36416;DHT22;22447;44.530;18.620;2023-04-24T13:02:15;22.10;58.10
36416;DHT22;22447;44.530;18.620;2023-04-24T13:04:49;22.10;58.70
36416;DHT22;22447;44.530;18.620;2023-04-24T13:07:17;21.80;59.10
36416;DHT22;22447;44.530;18.620;2023-04-24T13:09:43;21.70;59.30
36416;DHT22;22447;44.530;18.620;2023-04-24T13:12:10;21.80;58.70
36416;DHT22;22447;44.530;18.620;2023-04-24T13:14:36;21.70;59.80
36416;DHT22;22447;44.530;18.620;2023-04-24T13:17:02;21.90;61.40
36416;DHT22;22447;44.530;18.620;2023-04-24T13:19:28;22.10;61.10
36416;DHT22;22447;44.530;18.620;2023-04-24T13:21:54;22.20;60.20
36416;DHT22;22447;44.530;18.620;2023-04-24T13:24:21;22.30;60.00
36416;DHT22;22447;44.530;18.620;2023-04-24T13:26:50;22.50;58.70
36416;DHT22;22447;44.530;18.620;2023-04-24T13:29:16;22.90;60.70
36416;DHT22;22447;44.530;18.620;2023-04-24T13:31:41;23.10;58.30
36416;DHT22;22447;44.530;18.620;2023-04-24T13:34:07;23.60;59.20
36416;DHT22;22447;44.530;18.620;2023-04-24T13:36:33;23.70;56.90
36416;DHT22;22447;44.530;18.620;2023-04-24T13:38:59;23.70;56.00
36416;DHT22;22447;44.530;18.620;2023-04-24T13:41:25;23.70;57.90
36416;DHT22;22447;44.530;18.620;2023-04-24T13:43:51;23.30;56.10
36416;DHT22;22447;44.530;18.620;2023-04-24T13:46:16;23.20;56.10
36416;DHT22;22447;44.530;18.620;2023-04-24T13:48:42;23.00;56.40
36416;DHT22;22447;44.530;18.620;2023-04-24T13:51:08;23.20;58.10
36416;DHT22;22447;44.530;18.620;2023-04-24T13:53:34;22.90;55.90
36416;DHT22;22447;44.530;18.620;2023-04-24T13:56:03;22.70;56.60
36416;DHT22;22447;44.530;18.620;2023-04-24T13:58:29;22.30;60.90
36416;DHT22;22447;44.530;18.620;2023-04-24T14:00:55;22.20;60.60
36416;DHT22;22447;44.530;18.620;2023-04-24T14:03:21;21.80;62.10
36416;DHT22;22447;44.530;18.620;2023-04-24T14:05:46;21.80;62.40
36416;DHT22;22447;44.530;18.620;2023-04-24T14:08:12;21.40;64.00
36416;DHT22;22447;44.530;18.620;2023-04-24T14:10:38;21.40;66.50
36416;DHT22;22447;44.530;18.620;2023-04-24T14:13:04;21.10;67.30
36416;DHT22;22447;44.530;18.620;2023-04-24T14:15:29;21.20;64.20
36416;DHT22;22447;44.530;18.620;2023-04-24T14:17:55;21.20;64.50
36416;DHT22;22447;44.530;18.620;2023-04-24T14:20:21;21.10;64.70
36416;DHT22;22447;44.530;18.620;2023-04-24T14:22:47;21.20;66.80
36416;DHT22;22447;44.530;18.620;2023-04-24T14:25:13;21.00;63.10
36416;DHT22;22447;44.530;18.620;2023-04-24T14:27:39;21.00;62.10
36416;DHT22;22447;44.530;18.620;2023-04-24T14:30:05;21.10;62.70
36416;DHT22;22447;44.530;18.620;2023-04-24T14:32:31;21.20;64.90
36416;DHT22;22447;44.530;18.620;2023-04-24T14:34:57;21.40;62.60
36416;DHT22;22447;44.530;18.620;2023-04-24T14:37:23;21.30;60.60
36416;DHT22;22447;44.530;18.620;2023-04-24T14:39:49;21.40;60.20
36416;DHT22;22447;44.530;18.620;2023-04-24T14:42:14;21.30;60.80
36416;DHT22;22447;44.530;18.620;2023-04-24T14:44:42;21.20;58.70
36416;DHT22;22447;44.530;18.620;2023-04-24T14:47:08;21.10;59.80
36416;DHT22;22447;44.530;18.620;2023-04-24T14:49:33;20.90;61.40
36416;DHT22;22447;44.530;18.620;2023-04-24T14:51:59;20.90;60.30
36416;DHT22;22447;44.530;18.620;2023-04-24T14:54:25;20.80;60.90
36416;DHT22;22447;44.530;18.620;2023-04-24T14:56:51;20.60;60.70
36416;DHT22;22447;44.530;18.620;2023-04-24T14:59:17;20.50;59.90
36416;DHT22;22447;44.530;18.620;2023-04-24T15:01:42;20.50;61.10
36416;DHT22;22447;44.530;18.620;2023-04-24T15:04:08;20.50;62.10
36416;DHT22;22447;44.530;18.620;2023-04-24T15:06:34;20.40;60.60
36416;DHT22;22447;44.530;18.620;2023-04-24T15:09:00;20.40;61.50
36416;DHT22;22447;44.530;18.620;2023-04-24T15:11:26;20.40;62.30
36416;DHT22;22447;44.530;18.620;2023-04-24T15:13:51;20.40;63.50
36416;DHT22;22447;44.530;18.620;2023-04-24T15:16:17;20.30;62.50
36416;DHT22;22447;44.530;18.620;2023-04-24T15:18:43;20.20;62.40